createdAt,value
2022-08-23T00:00:12.869Z,0.00
2022-08-23T00:01:05.805Z,0.00
2022-08-23T00:02:05.764Z,0.00
2022-08-23T00:03:05.823Z,0.00
2022-08-23T00:04:05.783Z,0.00
2022-08-23T00:05:09.457Z,0.00
2022-08-23T00:06:05.795Z,0.00
2022-08-23T00:07:05.813Z,0.00
2022-08-23T00:08:05.803Z,0.00
2022-08-23T00:09:05.793Z,0.00
2022-08-23T00:10:05.807Z,0.00
2022-08-23T00:11:05.831Z,0.00
2022-08-23T00:12:05.822Z,0.00
2022-08-23T00:13:05.808Z,0.00
2022-08-23T00:14:05.820Z,0.00
2022-08-23T00:15:05.826Z,0.00
2022-08-23T00:16:05.848Z,0.00
2022-08-23T00:17:05.846Z,0.00
2022-08-23T00:18:05.840Z,0.00
2022-08-23T00:19:05.843Z,0.00
2022-08-23T00:20:05.838Z,0.00
2022-08-23T00:21:05.855Z,0.00
2022-08-23T00:22:05.871Z,0.00
2022-08-23T00:23:05.878Z,0.00
2022-08-23T00:24:05.853Z,0.00
2022-08-23T00:25:05.862Z,0.00
2022-08-23T00:26:05.879Z,0.00
2022-08-23T00:27:05.872Z,0.00
2022-08-23T00:28:05.886Z,0.00
2022-08-23T00:29:05.906Z,0.00
2022-08-23T00:30:05.890Z,0.00
2022-08-23T00:31:05.901Z,0.00
2022-08-23T00:32:05.922Z,0.00
2022-08-23T00:33:05.903Z,0.00
2022-08-23T00:34:05.919Z,0.00
2022-08-23T00:35:05.930Z,0.00
2022-08-23T00:36:05.908Z,0.00
2022-08-23T00:37:05.943Z,0.00
2022-08-23T00:38:32.493Z,0.00
2022-08-23T00:39:05.928Z,0.00
2022-08-23T00:40:05.984Z,0.00
2022-08-23T00:41:05.943Z,0.00
2022-08-23T00:42:05.938Z,0.00
2022-08-23T00:43:06.217Z,0.00
2022-08-23T00:44:05.959Z,0.00
2022-08-23T00:45:05.960Z,0.00
2022-08-23T00:46:05.998Z,0.00
2022-08-23T00:47:05.972Z,0.00
2022-08-23T00:48:05.976Z,0.00
2022-08-23T00:49:05.989Z,0.00
2022-08-23T00:50:19.279Z,0.00
2022-08-23T00:51:05.995Z,0.00
2022-08-23T00:52:06.010Z,0.00
2022-08-23T00:53:05.987Z,0.00
2022-08-23T00:54:06.002Z,0.00
2022-08-23T00:55:06.008Z,0.00
2022-08-23T00:56:05.998Z,0.00
2022-08-23T00:57:06.008Z,0.00
2022-08-23T00:58:06.008Z,0.00
2022-08-23T00:59:06.029Z,0.00
2022-08-23T01:00:06.013Z,0.00
2022-08-23T01:01:06.029Z,0.00
2022-08-23T01:02:06.127Z,0.00
2022-08-23T01:03:06.048Z,0.00
2022-08-23T01:04:06.033Z,0.00
2022-08-23T01:05:06.036Z,0.00
2022-08-23T01:06:06.046Z,0.00
2022-08-23T01:07:06.056Z,0.00
2022-08-23T01:08:06.066Z,0.00
2022-08-23T01:09:06.058Z,0.00
2022-08-23T01:10:06.056Z,0.00
2022-08-23T01:11:08.736Z,0.00
2022-08-23T01:12:06.082Z,0.00
2022-08-23T01:13:06.107Z,0.00
2022-08-23T01:14:06.076Z,0.00
2022-08-23T01:15:06.092Z,0.00
2022-08-23T01:16:06.100Z,0.00
2022-08-23T01:17:06.085Z,0.00
2022-08-23T01:18:06.088Z,0.00
2022-08-23T01:19:06.107Z,0.00
2022-08-23T01:20:06.111Z,0.00
2022-08-23T01:21:06.101Z,0.00
2022-08-23T01:22:06.103Z,0.00
2022-08-23T01:23:06.119Z,0.00
2022-08-23T01:24:06.136Z,0.00
2022-08-23T01:25:08.926Z,0.00
2022-08-23T01:27:52.344Z,0.00
2022-08-23T01:28:37.737Z,0.00
2022-08-23T01:29:37.718Z,0.00
2022-08-23T01:30:37.721Z,0.00
2022-08-23T01:31:37.720Z,0.00
2022-08-23T01:32:37.753Z,0.00
2022-08-23T01:33:37.728Z,0.00
2022-08-23T01:34:37.725Z,0.00
2022-08-23T01:35:37.741Z,0.00
2022-08-23T01:36:37.781Z,0.00
2022-08-23T01:37:37.746Z,0.00
2022-08-23T01:38:37.751Z,0.00
2022-08-23T01:39:37.750Z,0.00
2022-08-23T01:40:37.783Z,0.00
2022-08-23T01:41:37.756Z,0.00
2022-08-23T01:42:37.778Z,0.00
2022-08-23T01:43:37.761Z,0.00
2022-08-23T01:44:37.764Z,0.00
2022-08-23T01:45:37.794Z,0.00
2022-08-23T01:46:37.779Z,0.00
2022-08-23T01:47:37.787Z,0.00
2022-08-23T01:48:37.790Z,0.00
2022-08-23T01:49:37.798Z,0.00
2022-08-23T01:51:37.806Z,0.00
2022-08-23T01:52:37.837Z,0.00
2022-08-23T01:53:37.811Z,0.00
2022-08-23T01:54:37.811Z,0.00
2022-08-23T01:55:37.839Z,0.00
2022-08-23T01:56:38.893Z,0.00
2022-08-23T01:57:37.832Z,0.00
2022-08-23T01:58:37.848Z,0.00
2022-08-23T01:59:37.839Z,0.00
2022-08-23T02:00:37.833Z,0.00
2022-08-23T02:01:37.918Z,0.00
2022-08-23T02:02:37.849Z,0.00
2022-08-23T02:03:37.889Z,0.00
2022-08-23T02:04:37.856Z,0.00
2022-08-23T02:05:37.876Z,0.00
2022-08-23T02:06:37.870Z,0.00
2022-08-23T02:07:37.872Z,0.00
2022-08-23T02:08:37.899Z,0.00
2022-08-23T02:09:37.871Z,0.00
2022-08-23T02:10:37.886Z,0.00
2022-08-23T02:11:37.890Z,0.00
2022-08-23T02:12:37.897Z,0.00
2022-08-23T02:13:37.901Z,0.00
2022-08-23T02:14:37.935Z,0.00
2022-08-23T02:15:37.906Z,0.00
2022-08-23T02:16:37.912Z,0.00
2022-08-23T02:17:37.936Z,0.00
2022-08-23T02:18:37.909Z,0.00
2022-08-23T02:19:37.935Z,0.00
2022-08-23T02:20:37.919Z,0.00
2022-08-23T02:21:37.921Z,0.00
2022-08-23T02:22:37.942Z,0.00
2022-08-23T02:23:37.967Z,0.00
2022-08-23T02:24:37.974Z,0.00
2022-08-23T02:25:46.402Z,0.00
2022-08-23T02:26:37.945Z,0.00
2022-08-23T02:27:37.959Z,0.00
2022-08-23T02:28:37.967Z,0.00
2022-08-23T02:29:39.335Z,0.00
2022-08-23T02:30:37.992Z,0.00
2022-08-23T02:31:37.966Z,0.00
2022-08-23T02:32:37.983Z,0.00
2022-08-23T02:33:37.970Z,0.00
2022-08-23T02:34:38.003Z,0.00
2022-08-23T02:35:37.990Z,0.00
2022-08-23T02:36:37.988Z,0.00
2022-08-23T02:37:37.996Z,0.00
2022-08-23T02:38:38.007Z,0.00
2022-08-23T02:39:38.889Z,0.00
2022-08-23T02:40:38.039Z,0.00
2022-08-23T02:41:38.017Z,0.00
2022-08-23T02:42:38.025Z,0.00
2022-08-23T02:43:40.918Z,0.00
2022-08-23T02:44:38.024Z,0.00
2022-08-23T02:45:38.061Z,0.00
2022-08-23T02:46:38.027Z,0.00
2022-08-23T02:47:38.030Z,0.00
2022-08-23T02:48:38.035Z,0.00
2022-08-23T02:49:38.048Z,0.00
2022-08-23T02:50:38.057Z,0.00
2022-08-23T02:51:38.065Z,0.00
2022-08-23T02:52:38.061Z,0.00
2022-08-23T02:53:38.058Z,0.00
2022-08-23T02:54:38.098Z,0.00
2022-08-23T02:55:38.072Z,0.00
2022-08-23T02:56:38.071Z,0.00
2022-08-23T02:57:38.123Z,0.00
2022-08-23T02:58:38.085Z,0.00
2022-08-23T02:59:38.081Z,0.00
2022-08-23T03:00:38.084Z,0.00
2022-08-23T03:01:38.094Z,0.00
2022-08-23T03:02:38.152Z,0.00
2022-08-23T03:03:38.131Z,0.00
2022-08-23T03:04:38.148Z,0.00
2022-08-23T03:05:38.114Z,0.00
2022-08-23T03:06:38.123Z,0.00
2022-08-23T03:07:38.124Z,0.00
2022-08-23T03:08:38.123Z,0.00
2022-08-23T03:09:38.138Z,0.00
2022-08-23T03:10:38.152Z,0.00
2022-08-23T03:11:38.140Z,0.00
2022-08-23T03:12:38.145Z,0.00
2022-08-23T03:13:38.145Z,0.00
2022-08-23T03:14:38.148Z,0.00
2022-08-23T03:15:38.189Z,0.00
2022-08-23T03:16:46.456Z,0.00
2022-08-23T03:17:46.463Z,0.00
2022-08-23T03:18:46.495Z,0.00
2022-08-23T03:19:46.536Z,0.00
2022-08-23T03:20:38.193Z,0.00
2022-08-23T03:21:46.543Z,0.00
2022-08-23T03:22:48.469Z,0.00
2022-08-23T03:23:46.608Z,0.00
2022-08-23T03:24:45.756Z,0.00
2022-08-23T03:25:47.681Z,0.00
2022-08-23T03:26:46.671Z,0.00
2022-08-23T03:27:46.700Z,0.00
2022-08-23T03:28:45.784Z,0.00
2022-08-23T03:29:46.244Z,0.00
2022-08-23T03:30:46.285Z,0.00
2022-08-23T03:31:46.299Z,0.00
2022-08-23T03:32:49.287Z,0.00
2022-08-23T03:33:46.324Z,0.00
2022-08-23T03:34:46.787Z,0.00
2022-08-23T03:35:47.371Z,0.00
2022-08-23T03:36:45.781Z,0.00
2022-08-23T03:37:46.425Z,0.00
2022-08-23T03:38:38.244Z,0.00
2022-08-23T03:39:38.283Z,0.00
2022-08-23T03:40:38.240Z,0.00
2022-08-23T03:41:38.246Z,0.00
2022-08-23T03:42:38.244Z,0.00
2022-08-23T03:43:38.254Z,0.00
2022-08-23T03:44:38.282Z,0.00
2022-08-23T03:45:38.262Z,0.00
2022-08-23T03:46:38.249Z,0.00
2022-08-23T03:47:38.274Z,0.00
2022-08-23T03:48:38.258Z,4.00
2022-08-23T03:49:38.271Z,4.00
2022-08-23T03:50:38.296Z,4.00
2022-08-23T03:51:38.289Z,0.00
2022-08-23T03:52:38.278Z,0.00
2022-08-23T03:53:38.274Z,4.00
2022-08-23T03:54:38.297Z,4.00
2022-08-23T03:55:42.117Z,4.00
2022-08-23T03:56:38.297Z,4.00
2022-08-23T03:57:38.306Z,4.00
2022-08-23T03:58:38.306Z,8.00
2022-08-23T03:59:38.308Z,4.00
2022-08-23T04:00:38.302Z,8.00
2022-08-23T04:01:38.339Z,8.00
2022-08-23T04:02:38.353Z,8.00
2022-08-23T04:03:38.334Z,8.00
2022-08-23T04:04:38.322Z,12.00
2022-08-23T04:05:38.329Z,8.00
2022-08-23T04:06:38.337Z,12.00
2022-08-23T04:07:38.340Z,12.00
2022-08-23T04:08:38.352Z,12.00
2022-08-23T04:09:38.347Z,12.00
2022-08-23T04:10:38.350Z,16.00
2022-08-23T04:11:38.348Z,16.00
2022-08-23T04:12:38.360Z,16.00
2022-08-23T04:13:38.381Z,20.00
2022-08-23T04:14:38.372Z,20.00
2022-08-23T04:15:38.362Z,20.00
2022-08-23T04:16:38.376Z,20.00
2022-08-23T04:17:38.377Z,24.00
2022-08-23T04:18:38.383Z,20.00
2022-08-23T04:19:38.397Z,20.00
2022-08-23T04:20:38.397Z,24.00
2022-08-23T04:21:38.381Z,24.00
2022-08-23T04:22:38.395Z,24.00
2022-08-23T04:23:38.405Z,28.00
2022-08-23T04:24:38.421Z,28.00
2022-08-23T04:25:38.401Z,28.00
2022-08-23T04:26:38.430Z,28.00
2022-08-23T04:27:38.422Z,28.00
2022-08-23T04:28:38.417Z,32.00
2022-08-23T04:29:38.440Z,32.00
2022-08-23T04:30:38.413Z,32.00
2022-08-23T04:31:38.792Z,32.00
2022-08-23T04:32:38.463Z,36.00
2022-08-23T04:33:40.315Z,36.00
2022-08-23T04:34:38.445Z,36.00
2022-08-23T04:35:38.460Z,36.00
2022-08-23T04:36:38.461Z,36.00
2022-08-23T04:37:38.456Z,36.00
2022-08-23T04:38:38.463Z,40.00
2022-08-23T04:39:38.469Z,40.00
2022-08-23T04:40:38.477Z,44.00
2022-08-23T04:41:38.472Z,48.00
2022-08-23T04:42:38.480Z,48.00
2022-08-23T04:43:38.475Z,48.00
2022-08-23T04:44:38.497Z,52.00
2022-08-23T04:45:38.497Z,52.00
2022-08-23T04:46:38.495Z,52.00
2022-08-23T04:47:38.486Z,52.00
2022-08-23T04:48:38.489Z,52.00
2022-08-23T04:49:38.494Z,56.00
2022-08-23T04:50:38.496Z,52.00
2022-08-23T04:51:38.544Z,52.00
2022-08-23T04:52:38.515Z,56.00
2022-08-23T04:53:38.520Z,56.00
2022-08-23T04:54:38.530Z,56.00
2022-08-23T04:55:38.531Z,60.00
2022-08-23T04:56:38.555Z,60.00
2022-08-23T04:57:38.548Z,60.00
2022-08-23T04:58:38.537Z,60.00
2022-08-23T04:59:38.541Z,64.00
2022-08-23T05:00:38.578Z,68.00
2022-08-23T05:01:38.564Z,68.00
2022-08-23T05:02:38.570Z,76.00
2022-08-23T05:03:38.550Z,76.00
2022-08-23T05:04:38.562Z,80.00
2022-08-23T05:05:38.607Z,80.00
2022-08-23T05:06:38.571Z,84.00
2022-08-23T05:07:42.210Z,84.00
2022-08-23T05:08:38.579Z,88.00
2022-08-23T05:09:38.588Z,92.00
2022-08-23T05:10:38.579Z,92.00
2022-08-23T05:11:38.580Z,92.00
2022-08-23T05:12:38.616Z,96.00
2022-08-23T05:13:38.589Z,100.00
2022-08-23T05:14:38.604Z,100.00
2022-08-23T05:15:38.597Z,104.00
2022-08-23T05:16:38.607Z,108.00
2022-08-23T05:17:38.620Z,108.00
2022-08-23T05:18:38.628Z,112.00
2022-08-23T05:19:44.206Z,116.00
2022-08-23T05:20:38.637Z,120.00
2022-08-23T05:21:38.672Z,128.00
2022-08-23T05:22:38.644Z,140.00
2022-08-23T05:23:38.657Z,152.00
2022-08-23T05:24:38.642Z,172.00
2022-08-23T05:25:38.654Z,192.00
2022-08-23T05:26:38.649Z,220.00
2022-08-23T05:27:38.659Z,248.00
2022-08-23T05:28:38.688Z,276.00
2022-08-23T05:29:38.667Z,292.00
2022-08-23T05:30:38.679Z,300.00
2022-08-23T05:31:38.731Z,296.00
2022-08-23T05:32:38.690Z,296.00
2022-08-23T05:33:38.720Z,292.00
2022-08-23T05:34:38.702Z,288.00
2022-08-23T05:35:38.702Z,292.00
2022-08-23T05:36:38.720Z,300.00
2022-08-23T05:37:38.702Z,312.00
2022-08-23T05:38:38.727Z,324.00
2022-08-23T05:39:38.709Z,336.00
2022-08-23T05:40:38.719Z,340.00
2022-08-23T05:41:38.739Z,344.00
2022-08-23T05:42:38.707Z,340.00
2022-08-23T05:43:38.720Z,332.00
2022-08-23T05:44:38.731Z,332.00
2022-08-23T05:45:38.738Z,332.00
2022-08-23T05:46:38.742Z,336.00
2022-08-23T05:47:38.728Z,344.00
2022-08-23T05:48:38.746Z,352.00
2022-08-23T05:49:38.755Z,360.00
2022-08-23T05:50:38.741Z,364.00
2022-08-23T05:51:38.741Z,368.00
2022-08-23T05:52:38.753Z,380.00
2022-08-23T05:53:38.751Z,388.00
2022-08-23T05:54:38.778Z,396.00
2022-08-23T05:55:38.767Z,388.00
2022-08-23T05:56:38.787Z,380.00
2022-08-23T05:57:38.776Z,360.00
2022-08-23T05:58:38.786Z,344.00
2022-08-23T05:59:38.797Z,344.00
2022-08-23T06:00:40.809Z,348.00
2022-08-23T06:01:38.782Z,352.00
2022-08-23T06:02:38.791Z,332.00
2022-08-23T06:03:38.805Z,304.00
2022-08-23T06:04:38.829Z,272.00
2022-08-23T06:05:38.813Z,256.00
2022-08-23T06:06:38.810Z,248.00
2022-08-23T06:07:38.828Z,244.00
2022-08-23T06:08:38.862Z,244.00
2022-08-23T06:09:38.842Z,252.00
2022-08-23T06:10:42.214Z,260.00
2022-08-23T06:11:38.846Z,268.00
2022-08-23T06:12:38.851Z,292.00
2022-08-23T06:13:38.837Z,320.00
2022-08-23T06:14:38.851Z,332.00
2022-08-23T06:15:38.886Z,356.00
2022-08-23T06:16:38.871Z,392.00
2022-08-23T06:17:38.864Z,424.00
2022-08-23T06:18:38.868Z,448.00
2022-08-23T06:19:38.874Z,456.00
2022-08-23T06:20:38.936Z,472.00
2022-08-23T06:21:38.887Z,484.00
2022-08-23T06:22:38.887Z,492.00
2022-08-23T06:23:38.890Z,504.00
2022-08-23T06:24:38.899Z,516.00
2022-08-23T06:25:38.897Z,528.00
2022-08-23T06:26:38.913Z,540.00
2022-08-23T06:27:38.895Z,544.00
2022-08-23T06:28:50.162Z,544.00
2022-08-23T06:29:38.903Z,548.00
2022-08-23T06:30:39.828Z,552.00
2022-08-23T06:31:38.957Z,556.00
2022-08-23T06:32:38.959Z,568.00
2022-08-23T06:33:38.935Z,576.00
2022-08-23T06:34:38.940Z,580.00
2022-08-23T06:35:40.084Z,576.00
2022-08-23T06:36:38.959Z,576.00
2022-08-23T06:37:38.986Z,576.00
2022-08-23T06:38:38.964Z,572.00
2022-08-23T06:39:38.959Z,568.00
2022-08-23T06:40:38.970Z,568.00
2022-08-23T06:41:38.961Z,568.00
2022-08-23T06:42:39.105Z,560.00
2022-08-23T06:43:39.001Z,560.00
2022-08-23T06:44:38.984Z,572.00
2022-08-23T06:45:38.977Z,580.00
2022-08-23T06:46:39.045Z,596.00
2022-08-23T06:47:39.056Z,612.00
2022-08-23T06:48:39.005Z,620.00
2022-08-23T06:49:39.008Z,624.00
2022-08-23T06:50:39.018Z,628.00
2022-08-23T06:51:39.020Z,628.00
2022-08-23T06:52:39.023Z,636.00
2022-08-23T06:53:39.020Z,640.00
2022-08-23T06:54:39.038Z,640.00
2022-08-23T06:55:39.061Z,644.00
2022-08-23T06:56:39.027Z,648.00
2022-08-23T06:57:39.063Z,656.00
2022-08-23T06:58:39.035Z,672.00
2022-08-23T06:59:39.050Z,676.00
2022-08-23T07:00:39.074Z,680.00
2022-08-23T07:01:45.677Z,684.00
2022-08-23T07:02:39.147Z,672.00
2022-08-23T07:03:39.094Z,660.00
2022-08-23T07:04:39.073Z,652.00
2022-08-23T07:05:39.120Z,652.00
2022-08-23T07:06:39.081Z,656.00
2022-08-23T07:07:41.423Z,660.00
2022-08-23T07:08:39.116Z,672.00
2022-08-23T07:09:39.107Z,688.00
2022-08-23T07:10:39.103Z,712.00
2022-08-23T07:11:39.114Z,752.00
2022-08-23T07:12:39.131Z,796.00
2022-08-23T07:13:39.110Z,844.00
2022-08-23T07:14:39.120Z,872.00
2022-08-23T07:15:39.134Z,876.00
2022-08-23T07:16:39.204Z,864.00
2022-08-23T07:17:39.154Z,840.00
2022-08-23T07:18:39.145Z,816.00
2022-08-23T07:19:39.210Z,796.00
2022-08-23T07:20:39.155Z,788.00
2022-08-23T07:21:39.164Z,796.00
2022-08-23T07:22:39.165Z,796.00
2022-08-23T07:23:39.170Z,792.00
2022-08-23T07:24:39.162Z,784.00
2022-08-23T07:25:39.200Z,764.00
2022-08-23T07:26:39.185Z,756.00
2022-08-23T07:27:39.576Z,744.00
2022-08-23T07:28:39.196Z,740.00
2022-08-23T07:29:39.224Z,756.00
2022-08-23T07:30:43.245Z,784.00
2022-08-23T07:31:39.253Z,820.00
2022-08-23T07:32:39.209Z,856.00
2022-08-23T07:33:39.215Z,888.00
2022-08-23T07:34:39.232Z,908.00
2022-08-23T07:35:40.409Z,920.00
2022-08-23T07:36:39.225Z,920.00
2022-08-23T07:37:39.235Z,940.00
2022-08-23T07:38:39.706Z,960.00
2022-08-23T07:39:39.265Z,980.00
2022-08-23T07:40:40.727Z,996.00
2022-08-23T07:41:39.253Z,1008.00
2022-08-23T07:42:39.265Z,1012.00
2022-08-23T07:45:45.494Z,1040.00
2022-08-23T07:46:12.564Z,1064.00
2022-08-23T07:48:53.952Z,1112.00
2022-08-23T07:49:43.422Z,1128.00
2022-08-23T07:50:56.023Z,1144.00
2022-08-23T07:51:43.429Z,1156.00
2022-08-23T07:52:43.433Z,1164.00
2022-08-23T07:53:46.077Z,1148.00
2022-08-23T07:54:43.517Z,1132.00
2022-08-23T07:55:43.460Z,1116.00
2022-08-23T07:56:43.460Z,1096.00
2022-08-23T07:57:43.456Z,1072.00
2022-08-23T07:58:43.458Z,1052.00
2022-08-23T07:59:43.475Z,1036.00
2022-08-23T08:00:43.479Z,1024.00
2022-08-23T08:01:43.587Z,1008.00
2022-08-23T08:02:43.537Z,996.00
2022-08-23T08:03:43.494Z,992.00
2022-08-23T08:04:43.520Z,988.00
2022-08-23T08:05:43.490Z,976.00
2022-08-23T08:06:43.492Z,956.00
2022-08-23T08:07:43.525Z,948.00
2022-08-23T08:08:43.509Z,936.00
2022-08-23T08:09:43.513Z,928.00
2022-08-23T08:10:43.526Z,932.00
2022-08-23T08:11:43.524Z,940.00
2022-08-23T08:12:43.559Z,948.00
2022-08-23T08:13:43.541Z,964.00
2022-08-23T08:14:43.538Z,984.00
2022-08-23T08:15:43.581Z,1008.00
2022-08-23T08:16:43.556Z,1044.00
2022-08-23T08:17:43.576Z,1080.00
2022-08-23T08:18:43.592Z,1128.00
2022-08-23T08:19:43.576Z,1176.00
2022-08-23T08:20:43.596Z,1204.00
2022-08-23T08:21:43.587Z,1228.00
2022-08-23T08:22:47.550Z,1252.00
2022-08-23T08:23:43.604Z,1280.00
2022-08-23T08:24:43.610Z,1316.00
2022-08-23T08:25:50.787Z,1352.00
2022-08-23T08:26:43.626Z,1360.00
2022-08-23T08:27:43.627Z,1368.00
2022-08-23T08:28:43.620Z,1396.00
2022-08-23T08:29:43.645Z,1448.00
2022-08-23T08:30:43.710Z,1504.00
2022-08-23T08:31:45.051Z,1576.00
2022-08-23T08:32:47.250Z,1624.00
2022-08-23T08:33:43.659Z,1648.00
2022-08-23T08:34:44.119Z,1684.00
2022-08-23T08:35:43.669Z,1704.00
2022-08-23T08:36:43.737Z,1744.00
2022-08-23T08:37:43.690Z,1784.00
2022-08-23T08:38:47.911Z,1852.00
2022-08-23T08:39:43.716Z,1900.00
2022-08-23T08:40:43.794Z,1960.00
2022-08-23T08:41:43.705Z,2036.00
2022-08-23T08:42:44.570Z,2116.00
2022-08-23T08:43:43.761Z,2164.00
2022-08-23T08:44:43.722Z,2184.00
2022-08-23T08:45:43.782Z,2200.00
2022-08-23T08:46:43.803Z,2200.00
2022-08-23T08:47:43.734Z,2176.00
2022-08-23T08:48:43.750Z,2148.00
2022-08-23T08:49:43.761Z,2116.00
2022-08-23T08:50:44.548Z,2128.00
2022-08-23T08:51:43.798Z,2136.00
2022-08-23T08:52:43.850Z,2132.00
2022-08-23T08:53:43.778Z,2136.00
2022-08-23T08:54:47.860Z,2184.00
2022-08-23T08:55:43.784Z,2276.00
2022-08-23T08:56:43.808Z,2344.00
2022-08-23T08:57:43.787Z,2352.00
2022-08-23T08:58:43.800Z,2344.00
2022-08-23T08:59:43.823Z,2380.00
2022-08-23T09:00:43.812Z,2416.00
2022-08-23T09:01:43.862Z,2448.00
2022-08-23T09:02:43.862Z,2504.00
2022-08-23T09:03:43.822Z,2488.00
2022-08-23T09:04:43.835Z,2348.00
2022-08-23T09:05:43.839Z,2152.00
2022-08-23T09:06:43.853Z,1968.00
2022-08-23T09:07:43.871Z,1896.00
2022-08-23T09:08:43.860Z,1856.00
2022-08-23T09:09:43.856Z,1860.00
2022-08-23T09:10:43.892Z,1884.00
2022-08-23T09:11:43.888Z,1908.00
2022-08-23T09:12:43.886Z,1964.00
2022-08-23T09:13:46.150Z,2000.00
2022-08-23T09:14:43.887Z,2028.00
2022-08-23T09:15:43.940Z,2040.00
2022-08-23T09:16:43.919Z,2088.00
2022-08-23T09:17:44.011Z,2160.00
2022-08-23T09:18:43.916Z,2216.00
2022-08-23T09:19:43.935Z,2292.00
2022-08-23T09:20:43.971Z,2368.00
2022-08-23T09:21:43.939Z,2424.00
2022-08-23T09:22:43.954Z,2472.00
2022-08-23T09:23:43.946Z,2512.00
2022-08-23T09:24:43.983Z,2608.00
2022-08-23T09:25:43.979Z,2680.00
2022-08-23T09:26:43.975Z,2752.00
2022-08-23T09:27:43.981Z,2820.00
2022-08-23T09:28:43.993Z,2836.00
2022-08-23T09:29:44.034Z,2840.00
2022-08-23T09:30:44.013Z,2808.00
2022-08-23T09:31:44.107Z,2800.00
2022-08-23T09:32:44.008Z,2792.00
2022-08-23T09:33:44.022Z,2788.00
2022-08-23T09:34:44.017Z,2748.00
2022-08-23T09:35:44.055Z,2716.00
2022-08-23T09:36:44.036Z,2688.00
2022-08-23T09:37:44.038Z,2632.00
2022-08-23T09:38:44.039Z,2580.00
2022-08-23T09:39:44.133Z,2536.00
2022-08-23T09:40:44.064Z,2508.00
2022-08-23T09:41:44.072Z,2480.00
2022-08-23T09:42:44.070Z,2444.00
2022-08-23T09:43:44.109Z,2388.00
2022-08-23T09:44:44.084Z,2356.00
2022-08-23T09:45:44.105Z,2360.00
2022-08-23T09:46:44.199Z,2332.00
2022-08-23T09:47:44.340Z,2264.00
2022-08-23T09:48:44.140Z,2200.00
2022-08-23T09:49:44.129Z,2164.00
2022-08-23T09:50:44.135Z,2164.00
2022-08-23T09:51:44.499Z,2188.00
2022-08-23T09:52:44.144Z,2216.00
2022-08-23T09:53:44.148Z,2240.00
2022-08-23T09:54:47.605Z,2228.00
2022-08-23T09:55:44.174Z,2184.00
2022-08-23T09:56:44.198Z,2148.00
2022-08-23T09:57:44.183Z,2128.00
2022-08-23T09:58:44.188Z,2144.00
2022-08-23T09:59:44.191Z,2168.00
2022-08-23T10:00:44.201Z,2200.00
2022-08-23T10:01:44.291Z,2276.00
2022-08-23T10:02:44.217Z,2408.00
2022-08-23T10:03:44.223Z,2608.00
2022-08-23T10:04:44.268Z,2852.00
2022-08-23T10:05:44.242Z,3200.00
2022-08-23T10:06:44.246Z,3428.00
2022-08-23T10:07:44.268Z,4140.00
2022-08-23T10:08:44.250Z,5796.00
2022-08-23T10:09:44.263Z,6116.00
2022-08-23T10:10:44.271Z,6096.00
2022-08-23T10:11:44.280Z,6456.00
2022-08-23T10:12:44.276Z,6752.00
2022-08-23T10:13:44.308Z,8048.00
2022-08-23T10:14:44.311Z,7516.00
2022-08-23T10:15:44.347Z,6136.00
2022-08-23T10:16:44.297Z,7352.00
2022-08-23T10:17:44.318Z,10728.00
2022-08-23T10:18:44.343Z,10476.00
2022-08-23T10:19:44.339Z,11676.00
2022-08-23T10:20:44.342Z,10568.00
2022-08-23T10:21:44.369Z,8296.00
2022-08-23T10:22:44.381Z,5140.00
2022-08-23T10:23:44.363Z,4220.00
2022-08-23T10:24:44.360Z,4016.00
2022-08-23T10:25:44.390Z,3852.00
2022-08-23T10:26:44.393Z,3876.00
2022-08-23T10:27:44.407Z,3956.00
2022-08-23T10:28:44.401Z,3524.00
2022-08-23T10:29:44.404Z,3588.00
2022-08-23T10:30:44.508Z,3768.00
2022-08-23T10:31:44.443Z,3880.00
2022-08-23T10:32:44.435Z,3512.00
2022-08-23T10:33:44.468Z,3404.00
2022-08-23T10:34:49.794Z,3488.00
2022-08-23T10:35:44.470Z,3560.00
2022-08-23T10:36:44.470Z,3584.00
2022-08-23T10:37:44.497Z,4824.00
2022-08-23T10:38:44.476Z,4232.00
2022-08-23T10:39:44.511Z,3840.00
2022-08-23T10:40:44.495Z,3928.00
2022-08-23T10:41:44.499Z,4288.00
2022-08-23T10:42:44.543Z,5132.00
2022-08-23T10:43:44.527Z,4324.00
2022-08-23T10:44:44.520Z,3612.00
2022-08-23T10:45:44.539Z,3536.00
2022-08-23T10:46:44.583Z,3688.00
2022-08-23T10:47:44.556Z,3736.00
2022-08-23T10:48:44.584Z,3580.00
2022-08-23T10:49:44.572Z,3312.00
2022-08-23T10:50:44.586Z,3216.00
2022-08-23T10:51:44.576Z,3208.00
2022-08-23T10:52:44.580Z,3624.00
2022-08-23T10:53:44.609Z,3672.00
2022-08-23T10:54:44.616Z,3660.00
2022-08-23T10:55:44.620Z,3232.00
2022-08-23T10:56:48.647Z,2924.00
2022-08-23T10:57:44.630Z,3008.00
2022-08-23T10:58:44.636Z,3060.00
2022-08-23T10:59:44.660Z,2944.00
2022-08-23T11:00:44.647Z,2624.00
2022-08-23T11:01:44.686Z,2520.00
2022-08-23T11:02:44.758Z,2428.00
2022-08-23T11:03:44.665Z,2328.00
2022-08-23T11:04:44.716Z,2248.00
2022-08-23T11:05:44.685Z,2224.00
2022-08-23T11:06:44.693Z,2260.00
2022-08-23T11:07:44.704Z,2284.00
2022-08-23T11:08:47.657Z,2248.00
2022-08-23T11:09:44.736Z,2288.00
2022-08-23T11:10:53.698Z,2364.00
2022-08-23T11:11:44.730Z,2476.00
2022-08-23T11:12:44.752Z,2512.00
2022-08-23T11:13:44.757Z,2668.00
2022-08-23T11:14:44.756Z,2716.00
2022-08-23T11:15:45.282Z,2868.00
2022-08-23T11:16:44.769Z,3560.00
2022-08-23T11:17:44.808Z,4224.00
2022-08-23T11:18:44.802Z,5104.00
2022-08-23T11:19:44.802Z,4040.00
2022-08-23T11:20:44.834Z,4300.00
2022-08-23T11:21:44.829Z,4596.00
2022-08-23T11:22:44.814Z,3660.00
2022-08-23T11:23:44.827Z,3616.00
2022-08-23T11:24:44.829Z,3716.00
2022-08-23T11:25:44.842Z,4008.00
2022-08-23T11:26:44.875Z,4604.00
2022-08-23T11:27:44.876Z,4256.00
2022-08-23T11:28:44.882Z,4252.00
2022-08-23T11:29:44.875Z,4460.00
2022-08-23T11:30:44.929Z,4316.00
2022-08-23T11:31:44.925Z,5084.00
2022-08-23T11:32:44.893Z,5376.00
2022-08-23T11:33:44.910Z,5508.00
2022-08-23T11:34:44.918Z,4616.00
2022-08-23T11:35:44.930Z,5132.00
2022-08-23T11:36:44.945Z,4188.00
2022-08-23T11:37:44.954Z,4452.00
2022-08-23T11:38:44.948Z,4028.00
2022-08-23T11:39:44.989Z,3588.00
2022-08-23T11:40:44.971Z,4668.00
2022-08-23T11:41:44.968Z,5164.00
2022-08-23T11:42:44.991Z,5556.00
2022-08-23T11:43:44.996Z,4220.00
2022-08-23T11:44:44.996Z,4200.00
2022-08-23T11:45:44.995Z,4596.00
2022-08-23T11:46:45.019Z,4828.00
2022-08-23T11:47:45.018Z,4104.00
2022-08-23T11:48:45.032Z,4344.00
2022-08-23T11:49:45.043Z,4512.00
2022-08-23T11:50:45.050Z,3572.00
2022-08-23T11:51:45.055Z,3652.00
2022-08-23T11:52:45.066Z,3560.00
2022-08-23T11:53:45.079Z,3400.00
2022-08-23T11:54:45.074Z,3460.00
2022-08-23T11:55:45.082Z,3712.00
2022-08-23T11:56:46.408Z,3456.00
2022-08-23T11:57:45.105Z,3468.00
2022-08-23T11:58:45.115Z,3640.00
2022-08-23T11:59:45.114Z,3316.00
2022-08-23T12:00:45.154Z,2836.00
2022-08-23T12:01:45.124Z,2696.00
2022-08-23T12:02:45.305Z,3116.00
2022-08-23T12:03:46.093Z,3408.00
2022-08-23T12:04:45.163Z,3652.00
2022-08-23T12:05:45.202Z,3836.00
2022-08-23T12:06:50.566Z,3656.00
2022-08-23T12:07:45.178Z,3244.00
2022-08-23T12:08:45.185Z,3676.00
2022-08-23T12:09:45.203Z,3448.00
2022-08-23T12:10:45.226Z,2436.00
2022-08-23T12:11:45.253Z,3080.00
2022-08-23T12:12:47.273Z,3520.00
2022-08-23T12:13:45.234Z,2844.00
2022-08-23T12:14:45.270Z,2276.00
2022-08-23T12:15:45.325Z,1632.00
2022-08-23T12:16:49.814Z,1528.00
2022-08-23T12:17:45.260Z,1340.00
2022-08-23T12:18:47.617Z,1320.00
2022-08-23T12:19:45.285Z,1304.00
2022-08-23T12:20:48.574Z,1432.00
2022-08-23T12:21:45.293Z,2164.00
2022-08-23T12:22:45.330Z,2584.00
2022-08-23T12:23:47.926Z,2568.00
2022-08-23T12:24:46.886Z,2764.00
2022-08-23T12:25:45.325Z,2836.00
2022-08-23T12:26:45.354Z,2700.00
2022-08-23T12:27:45.366Z,2424.00
2022-08-23T12:28:45.370Z,2348.00
2022-08-23T12:29:45.364Z,2328.00
2022-08-23T12:30:45.416Z,2288.00
2022-08-23T12:31:45.418Z,2436.00
2022-08-23T12:32:45.400Z,2476.00
2022-08-23T12:33:45.886Z,2376.00
2022-08-23T12:34:45.427Z,2388.00
2022-08-23T12:35:45.425Z,2184.00
2022-08-23T12:36:45.432Z,2056.00
2022-08-23T12:37:45.439Z,1892.00
2022-08-23T12:38:45.454Z,1688.00
2022-08-23T12:39:45.495Z,1780.00
2022-08-23T12:40:45.467Z,1516.00
2022-08-23T12:41:45.469Z,1352.00